Time,TemperatureF,DewpointF,PressureIn,WindDirection,WindDirectionDegrees,WindSpeedMPH,WindSpeedGustMPH,Humidity,HourlyPrecipIn,Conditions,Clouds,dailyrainin,SolarRadiationWatts/m^2,SoftwareType,DateUTC
2013-02-25 00:01:00,9.7,6.8,30.20,East,80,0.0,2.0,88,0.00,,,0.00,0.0,meteohub,2013-02-25 06:01:00,
2013-02-25 00:06:00,9.3,7.0,30.20,East,80,0.0,2.0,90,0.00,,,0.00,0.0,meteohub,2013-02-25 06:06:00,
2013-02-25 00:11:00,9.1,6.8,30.20,East,80,0.0,2.0,90,0.00,,,0.00,0.0,meteohub,2013-02-25 06:11:00,
2013-02-25 00:16:00,9.5,7.3,30.20,East,80,0.0,0.0,91,0.00,,,0.00,0.0,meteohub,2013-02-25 06:16:00,
2013-02-25 00:21:00,10.0,7.9,30.20,East,80,0.0,0.0,91,0.00,,,0.00,0.0,meteohub,2013-02-25 06:21:00,
2013-02-25 00:26:00,10.6,8.4,30.20,East,80,1.0,0.0,91,0.00,,,0.00,0.0,meteohub,2013-02-25 06:26:00,
2013-02-25 00:31:00,9.7,7.3,30.20,East,80,0.0,2.0,90,0.00,,,0.00,0.0,meteohub,2013-02-25 06:31:00,
2013-02-25 00:36:00,9.9,7.5,30.20,East,80,0.0,2.0,90,0.00,,,0.00,0.0,meteohub,2013-02-25 06:36:00,
2013-02-25 00:41:00,10.2,8.1,30.20,East,80,0.0,2.0,91,0.00,,,0.00,0.0,meteohub,2013-02-25 06:41:00,
2013-02-25 00:46:00,10.8,8.6,30.19,East,80,0.0,0.0,91,0.00,,,0.00,0.0,meteohub,2013-02-25 06:46:00,
2013-02-25 00:51:00,11.5,9.3,30.19,East,80,0.0,0.0,91,0.00,,,0.00,0.0,meteohub,2013-02-25 06:51:00,
2013-02-25 00:56:00,10.8,8.4,30.19,East,80,0.0,0.0,90,0.00,,,0.00,0.0,meteohub,2013-02-25 06:56:00,
2013-02-25 01:01:00,10.0,7.5,30.19,East,80,0.0,0.0,89,0.00,,,0.00,0.0,meteohub,2013-02-25 07:01:00,
2013-02-25 01:06:00,10.0,7.7,30.19,East,80,0.0,0.0,90,0.00,,,0.00,0.0,meteohub,2013-02-25 07:06:00,
2013-02-25 01:11:00,9.9,7.5,30.19,East,80,0.0,0.0,90,0.00,,,0.00,0.0,meteohub,2013-02-25 07:11:00,
2013-02-25 01:16:00,10.0,7.7,30.19,East,80,0.0,0.0,90,0.00,,,0.00,0.0,meteohub,2013-02-25 07:16:00,
2013-02-25 01:21:00,10.4,8.2,30.19,East,80,0.0,0.0,91,0.00,,,0.00,0.0,meteohub,2013-02-25 07:21:00,
2013-02-25 01:26:00,10.6,8.4,30.19,East,80,0.0,0.0,91,0.00,,,0.00,0.0,meteohub,2013-02-25 07:26:00,
2013-02-25 01:31:00,10.8,8.4,30.19,East,80,0.0,0.0,90,0.00,,,0.00,0.0,meteohub,2013-02-25 07:31:00,
2013-02-25 01:36:00,10.6,8.2,30.19,East,80,0.0,0.0,90,0.00,,,0.00,0.0,meteohub,2013-02-25 07:36:00,
2013-02-25 01:41:00,10.8,8.6,30.19,East,80,0.0,0.0,91,0.00,,,0.00,0.0,meteohub,2013-02-25 07:41:00,
2013-02-25 01:47:00,10.8,8.4,30.19,East,80,0.0,0.0,90,0.00,,,0.00,0.0,meteohub,2013-02-25 07:47:00,
2013-02-25 01:52:00,10.4,8.1,30.19,East,80,0.0,0.0,90,0.00,,,0.00,0.0,meteohub,2013-02-25 07:52:00,
2013-02-25 01:57:00,10.0,7.5,30.19,East,80,0.0,0.0,89,0.00,,,0.00,0.0,meteohub,2013-02-25 07:57:00,
2013-02-25 02:02:00,9.5,7.0,30.19,East,80,0.0,0.0,89,0.00,,,0.00,0.0,meteohub,2013-02-25 08:02:00,
2013-02-25 02:07:00,9.1,6.6,30.19,East,80,0.0,0.0,89,0.00,,,0.00,0.0,meteohub,2013-02-25 08:07:00,
2013-02-25 02:12:00,9.0,6.4,30.19,East,80,0.0,0.0,89,0.00,,,0.00,0.0,meteohub,2013-02-25 08:12:00,
2013-02-25 02:17:00,9.1,6.6,30.19,East,80,0.0,0.0,89,0.00,,,0.00,0.0,meteohub,2013-02-25 08:17:00,
2013-02-25 02:22:00,8.4,5.5,30.18,East,80,0.0,0.0,88,0.00,,,0.00,0.0,meteohub,2013-02-25 08:22:00,
2013-02-25 02:27:00,8.2,5.4,30.18,East,80,0.0,0.0,88,0.00,,,0.00,0.0,meteohub,2013-02-25 08:27:00,
2013-02-25 02:32:00,8.2,5.7,30.18,East,80,0.0,0.0,89,0.00,,,0.00,0.0,meteohub,2013-02-25 08:32:00,
2013-02-25 02:37:00,8.2,5.7,30.18,East,80,0.0,0.0,89,0.00,,,0.00,0.0,meteohub,2013-02-25 08:37:00,
2013-02-25 02:42:00,7.9,5.0,30.18,East,80,0.0,0.0,88,0.00,,,0.00,0.0,meteohub,2013-02-25 08:42:00,
2013-02-25 02:47:00,7.9,5.4,30.18,East,80,0.0,0.0,89,0.00,,,0.00,0.0,meteohub,2013-02-25 08:47:00,
2013-02-25 02:52:00,8.1,5.5,30.18,East,80,0.0,0.0,89,0.00,,,0.00,0.0,meteohub,2013-02-25 08:52:00,
2013-02-25 02:57:00,7.9,5.4,30.18,East,80,0.0,0.0,89,0.00,,,0.00,0.0,meteohub,2013-02-25 08:57:00,
2013-02-25 03:02:00,7.3,4.5,30.18,East,80,0.0,0.0,88,0.00,,,0.00,0.0,meteohub,2013-02-25 09:02:00,
2013-02-25 03:07:00,7.9,5.4,30.18,East,80,0.0,0.0,89,0.00,,,0.00,0.0,meteohub,2013-02-25 09:07:00,
2013-02-25 03:12:00,7.3,4.5,30.18,East,80,0.0,0.0,88,0.00,,,0.00,0.0,meteohub,2013-02-25 09:12:00,
2013-02-25 03:17:00,7.0,4.1,30.18,East,80,0.0,0.0,88,0.00,,,0.00,0.0,meteohub,2013-02-25 09:17:00,
2013-02-25 03:22:00,7.0,4.5,30.18,East,80,0.0,0.0,89,0.00,,,0.00,0.0,meteohub,2013-02-25 09:22:00,
2013-02-25 03:27:00,7.2,4.6,30.18,East,80,0.0,0.0,89,0.00,,,0.00,0.0,meteohub,2013-02-25 09:27:00,
2013-02-25 03:32:00,7.2,4.6,30.17,East,80,0.0,0.0,89,0.00,,,0.00,0.0,meteohub,2013-02-25 09:32:00,
2013-02-25 03:37:00,7.2,4.3,30.17,East,80,0.0,0.0,88,0.00,,,0.00,0.0,meteohub,2013-02-25 09:37:00,
2013-02-25 03:42:00,7.0,4.5,30.17,East,80,0.0,0.0,89,0.00,,,0.00,0.0,meteohub,2013-02-25 09:42:00,
2013-02-25 03:47:00,6.8,3.9,30.17,East,80,0.0,0.0,88,0.00,,,0.00,0.0,meteohub,2013-02-25 09:47:00,
2013-02-25 03:52:00,6.8,4.3,30.17,East,80,0.0,0.0,89,0.00,,,0.00,0.0,meteohub,2013-02-25 09:52:00,
2013-02-25 03:57:00,6.8,4.3,30.17,East,80,0.0,0.0,89,0.00,,,0.00,0.0,meteohub,2013-02-25 09:57:00,
2013-02-25 04:02:00,6.6,4.1,30.17,East,80,0.0,0.0,89,0.00,,,0.00,0.0,meteohub,2013-02-25 10:02:00,
2013-02-25 04:07:00,7.2,4.6,30.18,East,80,0.0,0.0,89,0.00,,,0.00,0.0,meteohub,2013-02-25 10:07:00,
2013-02-25 04:12:00,7.3,4.8,30.17,East,80,0.0,0.0,89,0.00,,,0.00,0.0,meteohub,2013-02-25 10:12:00,
2013-02-25 04:17:00,7.9,5.4,30.18,East,80,0.0,0.0,89,0.00,,,0.00,0.0,meteohub,2013-02-25 10:17:00,
2013-02-25 04:22:00,7.9,5.4,30.17,East,80,0.0,0.0,89,0.00,,,0.00,0.0,meteohub,2013-02-25 10:22:00,
2013-02-25 04:27:00,8.2,5.7,30.17,East,80,0.0,0.0,89,0.00,,,0.00,0.0,meteohub,2013-02-25 10:27:00,
2013-02-25 04:32:00,9.0,6.6,30.17,East,80,0.0,0.0,90,0.00,,,0.00,0.0,meteohub,2013-02-25 10:32:00,
2013-02-25 04:37:00,8.8,6.3,30.17,East,80,0.0,0.0,89,0.00,,,0.00,0.0,meteohub,2013-02-25 10:37:00,
2013-02-25 04:42:00,8.2,5.4,30.18,East,80,0.0,0.0,88,0.00,,,0.00,0.0,meteohub,2013-02-25 10:42:00,
2013-02-25 04:47:00,8.2,5.7,30.18,East,80,0.0,1.0,89,0.00,,,0.00,0.0,meteohub,2013-02-25 10:47:00,
2013-02-25 04:52:00,9.0,6.6,30.18,East,80,0.0,1.0,90,0.00,,,0.00,0.0,meteohub,2013-02-25 10:52:00,
2013-02-25 04:57:00,9.3,7.0,30.18,East,80,0.0,0.0,90,0.00,,,0.00,0.0,meteohub,2013-02-25 10:57:00,
2013-02-25 05:02:00,9.1,6.6,30.18,East,80,0.0,0.0,89,0.00,,,0.00,0.0,meteohub,2013-02-25 11:02:00,
2013-02-25 05:07:00,9.1,6.6,30.18,East,80,0.0,0.0,89,0.00,,,0.00,0.0,meteohub,2013-02-25 11:07:00,
2013-02-25 05:12:00,9.3,7.0,30.18,East,80,0.0,0.0,90,0.00,,,0.00,0.0,meteohub,2013-02-25 11:12:00,
2013-02-25 05:17:00,9.3,6.8,30.18,East,80,0.0,0.0,89,0.00,,,0.00,0.0,meteohub,2013-02-25 11:17:00,
2013-02-25 05:22:00,9.3,7.0,30.18,East,80,0.0,0.0,90,0.00,,,0.00,0.0,meteohub,2013-02-25 11:22:00,
2013-02-25 05:27:00,9.9,7.5,30.19,East,80,0.0,0.0,90,0.00,,,0.00,0.0,meteohub,2013-02-25 11:27:00,
2013-02-25 05:32:00,10.2,7.9,30.19,East,80,0.0,0.0,90,0.00,,,0.00,0.0,meteohub,2013-02-25 11:32:00,
2013-02-25 05:37:00,10.0,7.7,30.18,East,80,0.0,0.0,90,0.00,,,0.00,0.0,meteohub,2013-02-25 11:37:00,
2013-02-25 05:42:00,10.0,7.7,30.18,East,80,0.0,0.0,90,0.00,,,0.00,0.0,meteohub,2013-02-25 11:42:00,
2013-02-25 05:47:00,10.4,8.1,30.18,East,80,0.0,0.0,90,0.00,,,0.00,0.0,meteohub,2013-02-25 11:47:00,
2013-02-25 05:52:00,10.8,8.4,30.19,East,80,0.0,0.0,90,0.00,,,0.00,0.0,meteohub,2013-02-25 11:52:00,
2013-02-25 05:57:00,10.9,8.6,30.19,East,80,0.0,0.0,90,0.00,,,0.00,0.0,meteohub,2013-02-25 11:57:00,
2013-02-25 06:02:00,10.9,8.6,30.19,East,80,0.0,1.0,90,0.00,,,0.00,0.0,meteohub,2013-02-25 12:02:00,
2013-02-25 06:07:00,11.1,8.8,30.19,East,80,0.0,1.0,90,0.00,,,0.00,0.0,meteohub,2013-02-25 12:07:00,
2013-02-25 06:12:00,11.5,9.1,30.19,East,80,0.0,1.0,90,0.00,,,0.00,0.0,meteohub,2013-02-25 12:12:00,
2013-02-25 06:17:00,12.0,9.9,30.19,East,80,0.0,0.0,91,0.00,,,0.00,0.0,meteohub,2013-02-25 12:17:00,
2013-02-25 06:22:00,11.8,9.5,30.19,East,80,0.0,0.0,90,0.00,,,0.00,0.0,meteohub,2013-02-25 12:22:00,
2013-02-25 06:27:00,12.4,10.2,30.19,East,80,0.0,0.0,91,0.00,,,0.00,0.0,meteohub,2013-02-25 12:27:00,
2013-02-25 06:32:00,12.7,10.6,30.19,East,80,0.0,0.0,91,0.00,,,0.00,0.0,meteohub,2013-02-25 12:32:00,
2013-02-25 06:37:00,12.9,10.8,30.19,East,80,0.0,0.0,91,0.00,,,0.00,0.0,meteohub,2013-02-25 12:37:00,
2013-02-25 06:42:00,13.3,11.1,30.19,East,80,0.0,0.0,91,0.00,,,0.00,0.0,meteohub,2013-02-25 12:42:00,
2013-02-25 06:47:00,12.9,10.6,30.19,East,80,0.0,0.0,90,0.00,,,0.00,0.0,meteohub,2013-02-25 12:47:00,
2013-02-25 06:52:00,13.8,12.0,30.19,East,80,0.0,0.0,92,0.00,,,0.00,0.0,meteohub,2013-02-25 12:52:00,
2013-02-25 06:57:00,14.5,12.6,30.19,East,80,0.0,0.0,92,0.00,,,0.00,0.0,meteohub,2013-02-25 12:57:00,
2013-02-25 07:02:00,13.6,11.3,30.19,East,80,0.0,0.0,90,0.00,,,0.00,0.0,meteohub,2013-02-25 13:02:00,
2013-02-25 07:07:00,13.6,11.5,30.19,East,80,0.0,0.0,91,0.00,,,0.00,0.0,meteohub,2013-02-25 13:07:00,
2013-02-25 07:12:00,13.5,11.1,30.19,East,80,0.0,0.0,90,0.00,,,0.00,0.0,meteohub,2013-02-25 13:12:00,
2013-02-25 07:17:00,13.1,10.8,30.20,East,80,0.0,0.0,90,0.00,,,0.00,0.0,meteohub,2013-02-25 13:17:00,
2013-02-25 07:22:00,13.1,10.9,30.20,East,80,0.0,0.0,91,0.00,,,0.00,5.0,meteohub,2013-02-25 13:22:00,
2013-02-25 07:27:00,13.3,11.1,30.19,East,80,0.0,0.0,91,0.00,,,0.00,9.0,meteohub,2013-02-25 13:27:00,
2013-02-25 07:32:00,13.6,11.5,30.19,East,80,0.0,0.0,91,0.00,,,0.00,11.0,meteohub,2013-02-25 13:32:00,
2013-02-25 07:37:00,13.8,11.7,30.19,East,80,0.0,0.0,91,0.00,,,0.00,14.0,meteohub,2013-02-25 13:37:00,
2013-02-25 07:42:00,14.4,12.2,30.19,East,80,0.0,0.0,91,0.00,,,0.00,19.0,meteohub,2013-02-25 13:42:00,
2013-02-25 07:47:00,14.7,12.7,30.19,East,80,0.0,0.0,92,0.00,,,0.00,21.0,meteohub,2013-02-25 13:47:00,
2013-02-25 07:52:00,15.1,13.1,30.19,East,80,0.0,0.0,92,0.00,,,0.00,25.0,meteohub,2013-02-25 13:52:00,
2013-02-25 07:57:00,15.3,13.3,30.19,East,80,0.0,0.0,92,0.00,,,0.00,26.0,meteohub,2013-02-25 13:57:00,
2013-02-25 08:02:00,15.6,13.6,30.19,East,80,0.0,0.0,92,0.00,,,0.00,37.0,meteohub,2013-02-25 14:02:00,
2013-02-25 08:07:00,15.6,13.6,30.20,East,80,0.0,0.0,92,0.00,,,0.00,35.0,meteohub,2013-02-25 14:07:00,
2013-02-25 08:13:00,15.6,13.5,30.20,East,80,0.0,2.0,91,0.00,,,0.00,35.0,meteohub,2013-02-25 14:13:00,
2013-02-25 08:18:00,15.4,13.3,30.20,East,80,0.0,2.0,91,0.00,,,0.00,47.0,meteohub,2013-02-25 14:18:00,
2013-02-25 08:23:00,15.6,13.5,30.20,East,80,0.0,2.0,91,0.00,,,0.00,49.0,meteohub,2013-02-25 14:23:00,
2013-02-25 08:28:00,15.8,13.8,30.20,East,80,0.0,1.0,92,0.00,,,0.00,53.0,meteohub,2013-02-25 14:28:00,
2013-02-25 08:33:00,16.2,14.2,30.21,East,80,0.0,0.0,92,0.00,,,0.00,49.0,meteohub,2013-02-25 14:33:00,
2013-02-25 08:38:00,16.3,14.4,30.21,East,80,0.0,0.0,92,0.00,,,0.00,51.0,meteohub,2013-02-25 14:38:00,
2013-02-25 08:43:00,16.5,14.5,30.21,East,80,0.0,0.0,92,0.00,,,0.00,54.0,meteohub,2013-02-25 14:43:00,
2013-02-25 08:48:00,16.5,14.5,30.21,East,80,0.0,0.0,92,0.00,,,0.00,53.0,meteohub,2013-02-25 14:48:00,
2013-02-25 08:53:00,16.7,14.7,30.21,East,80,0.0,0.0,92,0.00,,,0.00,53.0,meteohub,2013-02-25 14:53:00,
2013-02-25 08:58:00,16.9,14.9,30.21,East,80,0.0,0.0,92,0.00,,,0.00,63.0,meteohub,2013-02-25 14:58:00,
2013-02-25 09:03:00,17.1,15.1,30.21,East,80,0.0,0.0,92,0.00,,,0.00,67.0,meteohub,2013-02-25 15:03:00,
2013-02-25 09:08:00,17.2,15.3,30.21,East,80,0.0,0.0,92,0.00,,,0.00,77.0,meteohub,2013-02-25 15:08:00,
2013-02-25 09:13:00,17.6,15.6,30.21,East,80,0.0,0.0,92,0.00,,,0.00,79.0,meteohub,2013-02-25 15:13:00,
2013-02-25 09:18:00,17.6,15.6,30.21,East,80,0.0,1.0,92,0.00,,,0.00,90.0,meteohub,2013-02-25 15:18:00,
2013-02-25 09:23:00,18.0,16.0,30.21,East,80,0.0,1.0,92,0.00,,,0.00,102.0,meteohub,2013-02-25 15:23:00,
2013-02-25 09:28:00,18.3,16.3,30.21,East,80,0.0,1.0,92,0.00,,,0.00,100.0,meteohub,2013-02-25 15:28:00,
2013-02-25 09:33:00,18.3,16.3,30.20,East,80,0.0,1.0,92,0.00,,,0.00,123.0,meteohub,2013-02-25 15:33:00,
2013-02-25 09:38:00,18.7,17.1,30.20,ENE,76,1.0,1.0,93,0.00,,,0.00,134.0,meteohub,2013-02-25 15:38:00,
2013-02-25 09:43:00,18.5,16.5,30.20,West,277,1.0,2.0,92,0.00,,,0.00,134.0,meteohub,2013-02-25 15:43:00,
2013-02-25 09:48:00,18.5,16.5,30.20,West,277,0.0,3.0,92,0.00,,,0.00,142.0,meteohub,2013-02-25 15:48:00,
2013-02-25 09:53:00,18.9,16.9,30.19,West,277,0.0,3.0,92,0.00,,,0.00,148.0,meteohub,2013-02-25 15:53:00,
2013-02-25 09:58:00,19.2,17.6,30.19,West,277,0.0,2.0,93,0.00,,,0.00,148.0,meteohub,2013-02-25 15:58:00,
2013-02-25 10:03:00,19.2,17.6,30.19,NNW,348,0.0,2.0,93,0.00,,,0.00,149.0,meteohub,2013-02-25 16:03:00,
2013-02-25 10:08:00,19.6,18.0,30.20,NNW,348,0.0,2.0,93,0.00,,,0.00,146.0,meteohub,2013-02-25 16:08:00,
2013-02-25 10:13:00,19.8,18.1,30.20,NE,55,1.0,2.0,93,0.00,,,0.00,149.0,meteohub,2013-02-25 16:13:00,
2013-02-25 10:18:00,19.8,17.8,30.20,NE,55,1.0,2.0,92,0.00,,,0.00,148.0,meteohub,2013-02-25 16:18:00,
2013-02-25 10:23:00,19.8,18.1,30.20,NE,55,0.0,3.0,93,0.00,,,0.00,141.0,meteohub,2013-02-25 16:23:00,
2013-02-25 10:28:00,19.9,18.3,30.20,NE,55,0.0,3.0,93,0.00,,,0.00,137.0,meteohub,2013-02-25 16:28:00,
2013-02-25 10:33:00,20.1,18.5,30.20,NE,55,0.0,2.0,93,0.00,,,0.00,141.0,meteohub,2013-02-25 16:33:00,
2013-02-25 10:38:00,20.1,18.5,30.20,NE,55,1.0,1.0,93,0.00,,,0.00,158.0,meteohub,2013-02-25 16:38:00,
2013-02-25 10:43:00,20.1,18.5,30.20,NE,55,0.0,1.0,93,0.00,,,0.00,141.0,meteohub,2013-02-25 16:43:00,
2013-02-25 10:48:00,20.3,18.7,30.21,NE,55,0.0,2.0,93,0.00,,,0.00,146.0,meteohub,2013-02-25 16:48:00,
2013-02-25 10:53:00,20.3,18.7,30.21,NE,55,0.0,2.0,93,0.00,,,0.00,153.0,meteohub,2013-02-25 16:53:00,
2013-02-25 10:59:00,20.5,18.9,30.21,NE,55,0.0,2.0,93,0.00,,,0.00,139.0,meteohub,2013-02-25 16:59:00,
2013-02-25 11:03:00,20.5,18.9,30.21,NE,55,0.0,1.0,93,0.00,,,0.00,160.0,meteohub,2013-02-25 17:03:00,
2013-02-25 11:08:00,20.5,18.9,30.21,NE,55,0.0,2.0,93,0.00,,,0.00,169.0,meteohub,2013-02-25 17:08:00,
2013-02-25 11:14:00,20.7,19.0,30.21,NE,55,0.0,2.0,93,0.00,,,0.00,163.0,meteohub,2013-02-25 17:14:00,
2013-02-25 11:18:00,20.8,19.2,30.20,NE,55,0.0,2.0,93,0.00,,,0.00,178.0,meteohub,2013-02-25 17:18:00,
2013-02-25 11:23:00,21.0,19.4,30.21,NE,55,0.0,1.0,93,0.00,,,0.00,174.0,meteohub,2013-02-25 17:23:00,
2013-02-25 11:29:00,21.4,19.8,30.21,NE,55,0.0,1.0,93,0.00,,,0.00,193.0,meteohub,2013-02-25 17:29:00,
2013-02-25 11:34:00,21.6,19.9,30.21,West,266,0.0,1.0,93,0.00,,,0.00,185.0,meteohub,2013-02-25 17:34:00,
2013-02-25 11:39:00,21.7,20.1,30.21,West,266,2.0,2.0,93,0.00,,,0.00,211.0,meteohub,2013-02-25 17:39:00,
2013-02-25 11:44:00,21.7,20.1,30.21,West,266,1.0,2.0,93,0.00,,,0.00,223.0,meteohub,2013-02-25 17:44:00,
2013-02-25 11:49:00,21.7,20.1,30.21,West,266,0.0,3.0,93,0.00,,,0.00,221.0,meteohub,2013-02-25 17:49:00,
2013-02-25 11:54:00,21.9,20.1,30.20,West,266,0.0,3.0,93,0.00,,,0.00,239.0,meteohub,2013-02-25 17:54:00,
2013-02-25 11:59:00,22.3,20.8,30.20,West,266,0.0,2.0,94,0.00,,,0.00,250.0,meteohub,2013-02-25 17:59:00,
2013-02-25 12:04:00,22.6,20.8,30.20,West,266,1.0,2.0,93,0.00,,,0.00,258.0,meteohub,2013-02-25 18:04:00,
2013-02-25 12:09:00,22.6,21.2,30.19,West,266,0.0,2.0,94,0.00,,,0.00,255.0,meteohub,2013-02-25 18:09:00,
2013-02-25 12:14:00,22.8,21.0,30.19,West,266,0.0,2.0,93,0.00,,,0.00,241.0,meteohub,2013-02-25 18:14:00,
2013-02-25 12:19:00,23.0,21.6,30.19,West,266,0.0,3.0,94,0.00,,,0.00,251.0,meteohub,2013-02-25 18:19:00,
2013-02-25 12:24:00,23.2,21.4,30.19,SSW,209,1.0,3.0,93,0.00,,,0.00,237.0,meteohub,2013-02-25 18:24:00,
2013-02-25 12:29:00,23.2,21.4,30.19,North,351,1.0,3.0,93,0.00,,,0.00,278.0,meteohub,2013-02-25 18:29:00,
2013-02-25 12:34:00,23.5,22.1,30.19,NNW,343,0.0,3.0,94,0.00,,,0.00,288.0,meteohub,2013-02-25 18:34:00,
2013-02-25 12:39:00,23.4,21.6,30.19,West,279,0.0,3.0,93,0.00,,,0.00,251.0,meteohub,2013-02-25 18:39:00,
2013-02-25 12:44:00,23.4,21.9,30.19,NNW,334,1.0,3.0,94,0.00,,,0.00,278.0,meteohub,2013-02-25 18:44:00,
2013-02-25 12:49:00,23.5,22.1,30.19,West,279,0.0,3.0,94,0.00,,,0.00,260.0,meteohub,2013-02-25 18:49:00,
2013-02-25 12:54:00,23.5,21.7,30.19,West,276,2.0,3.0,93,0.00,,,0.00,230.0,meteohub,2013-02-25 18:54:00,
2013-02-25 12:59:00,23.4,21.6,30.19,West,271,2.0,3.0,93,0.00,,,0.00,241.0,meteohub,2013-02-25 18:59:00,
2013-02-25 13:04:00,23.5,21.7,30.18,WNW,292,0.0,4.0,93,0.00,,,0.00,250.0,meteohub,2013-02-25 19:04:00,
2013-02-25 13:09:00,23.5,21.7,30.18,West,274,1.0,4.0,93,0.00,,,0.00,258.0,meteohub,2013-02-25 19:09:00,
2013-02-25 13:14:00,23.7,21.9,30.18,West,263,1.0,3.0,93,0.00,,,0.00,248.0,meteohub,2013-02-25 19:14:00,
2013-02-25 13:19:00,23.9,22.1,30.18,West,274,2.0,3.0,93,0.00,,,0.00,248.0,meteohub,2013-02-25 19:19:00,
2013-02-25 13:24:00,23.9,22.1,30.18,West,274,2.0,3.0,93,0.00,,,0.00,239.0,meteohub,2013-02-25 19:24:00,
2013-02-25 13:29:00,24.1,22.3,30.18,West,274,1.0,3.0,93,0.00,,,0.00,236.0,meteohub,2013-02-25 19:29:00,
2013-02-25 13:34:00,24.3,22.5,30.18,West,274,1.0,3.0,93,0.00,,,0.00,246.0,meteohub,2013-02-25 19:34:00,
2013-02-25 13:39:00,24.4,22.5,30.17,West,274,0.0,3.0,92,0.00,,,0.00,264.0,meteohub,2013-02-25 19:39:00,
2013-02-25 13:44:00,24.4,22.5,30.17,West,274,1.0,3.0,92,0.00,,,0.00,264.0,meteohub,2013-02-25 19:44:00,
2013-02-25 13:49:00,24.4,22.5,30.17,West,274,0.0,3.0,92,0.00,,,0.00,297.0,meteohub,2013-02-25 19:49:00,
2013-02-25 13:54:00,25.0,22.6,30.17,NNW,343,0.0,3.0,91,0.00,,,0.00,315.0,meteohub,2013-02-25 19:54:00,
2013-02-25 13:59:00,25.2,22.6,30.17,NNW,343,0.0,3.0,90,0.00,,,0.00,248.0,meteohub,2013-02-25 19:59:00,
2013-02-25 14:04:00,25.5,23.2,30.16,NNE,28,1.0,3.0,91,0.00,,,0.00,262.0,meteohub,2013-02-25 20:04:00,
2013-02-25 14:09:00,25.3,22.8,30.16,NNE,13,1.0,5.0,90,0.00,,,0.00,236.0,meteohub,2013-02-25 20:09:00,
2013-02-25 14:14:00,25.7,23.2,30.16,NNE,13,1.0,5.0,90,0.00,,,0.00,243.0,meteohub,2013-02-25 20:14:00,
2013-02-25 14:19:00,26.1,23.2,30.16,NNE,13,0.0,5.0,89,0.00,,,0.00,241.0,meteohub,2013-02-25 20:19:00,
2013-02-25 14:24:00,26.1,23.0,30.16,NNE,13,1.0,4.0,88,0.00,,,0.00,239.0,meteohub,2013-02-25 20:24:00,
2013-02-25 14:29:00,26.6,23.5,30.16,NE,34,0.0,2.0,88,0.00,,,0.00,251.0,meteohub,2013-02-25 20:29:00,
2013-02-25 14:34:00,26.6,23.2,30.16,North,0,1.0,3.0,87,0.00,,,0.00,232.0,meteohub,2013-02-25 20:34:00,
2013-02-25 14:39:00,26.2,23.2,30.15,NNE,23,3.0,3.0,88,0.00,,,0.00,230.0,meteohub,2013-02-25 20:39:00,
2013-02-25 14:44:00,26.2,23.2,30.15,NNE,15,0.0,3.0,88,0.00,,,0.00,216.0,meteohub,2013-02-25 20:44:00,
2013-02-25 14:49:00,26.2,22.8,30.16,NNE,15,1.0,4.0,87,0.00,,,0.00,192.0,meteohub,2013-02-25 20:49:00,
2013-02-25 14:54:00,25.9,22.8,30.16,ENE,70,2.0,4.0,88,0.00,,,0.00,174.0,meteohub,2013-02-25 20:54:00,
2013-02-25 14:59:00,25.7,22.6,30.16,North,0,4.0,4.0,88,0.00,,,0.00,160.0,meteohub,2013-02-25 20:59:00,
2013-02-25 15:04:00,25.5,22.5,30.16,ENE,78,1.0,4.0,88,0.00,,,0.00,165.0,meteohub,2013-02-25 21:04:00,
2013-02-25 15:09:00,25.7,22.6,30.16,NNE,22,2.0,4.0,88,0.00,,,0.00,156.0,meteohub,2013-02-25 21:09:00,
2013-02-25 15:14:00,25.3,22.3,30.16,North,355,2.0,4.0,88,0.00,,,0.00,155.0,meteohub,2013-02-25 21:14:00,
2013-02-25 15:19:00,25.7,23.0,30.16,ENE,57,0.0,3.0,89,0.00,,,0.00,148.0,meteohub,2013-02-25 21:19:00,
2013-02-25 15:24:00,25.5,22.5,30.17,NNE,22,1.0,3.0,88,0.00,,,0.00,139.0,meteohub,2013-02-25 21:24:00,
2013-02-25 15:29:00,25.5,22.5,30.16,NNE,22,0.0,2.0,88,0.00,,,0.00,134.0,meteohub,2013-02-25 21:29:00,
2013-02-25 15:34:00,25.5,22.5,30.17,East,94,0.0,3.0,88,0.00,,,0.00,111.0,meteohub,2013-02-25 21:34:00,
2013-02-25 15:39:00,25.3,22.3,30.16,ENE,61,2.0,3.0,88,0.00,,,0.00,121.0,meteohub,2013-02-25 21:39:00,
2013-02-25 15:44:00,25.3,22.6,30.16,NNE,13,0.0,3.0,89,0.00,,,0.00,113.0,meteohub,2013-02-25 21:44:00,
2013-02-25 15:49:00,25.2,22.5,30.16,North,5,1.0,3.0,89,0.00,,,0.00,109.0,meteohub,2013-02-25 21:49:00,
2013-02-25 15:54:00,25.2,22.5,30.16,NNE,33,1.0,3.0,89,0.00,,,0.00,102.0,meteohub,2013-02-25 21:54:00,
2013-02-25 15:59:00,25.2,22.5,30.16,ENE,67,0.0,3.0,89,0.00,,,0.00,93.0,meteohub,2013-02-25 21:59:00,
2013-02-25 16:04:00,25.0,22.3,30.16,North,0,1.0,3.0,89,0.00,,,0.00,90.0,meteohub,2013-02-25 22:04:00,
2013-02-25 16:09:00,25.0,22.3,30.16,East,94,0.0,3.0,89,0.00,,,0.00,84.0,meteohub,2013-02-25 22:09:00,
2013-02-25 16:15:00,25.0,22.5,30.16,NE,47,2.0,3.0,90,0.00,,,0.00,90.0,meteohub,2013-02-25 22:15:00,
2013-02-25 16:20:00,24.8,22.3,30.16,NNE,22,1.0,3.0,90,0.00,,,0.00,83.0,meteohub,2013-02-25 22:20:00,
2013-02-25 16:25:00,24.8,22.1,30.16,NNW,348,1.0,3.0,89,0.00,,,0.00,77.0,meteohub,2013-02-25 22:25:00,
2013-02-25 16:30:00,24.6,22.1,30.16,North,0,1.0,4.0,90,0.00,,,0.00,70.0,meteohub,2013-02-25 22:30:00,
2013-02-25 16:35:00,24.8,22.3,30.16,North,0,0.0,4.0,90,0.00,,,0.00,65.0,meteohub,2013-02-25 22:35:00,
2013-02-25 16:40:00,24.8,22.3,30.16,North,5,1.0,4.0,90,0.00,,,0.00,62.0,meteohub,2013-02-25 22:40:00,
2013-02-25 16:45:00,25.0,22.3,30.16,ENE,66,1.0,3.0,89,0.00,,,0.00,56.0,meteohub,2013-02-25 22:45:00,
2013-02-25 16:50:00,25.0,22.5,30.16,ENE,66,0.0,4.0,90,0.00,,,0.00,54.0,meteohub,2013-02-25 22:50:00,
2013-02-25 16:55:00,24.6,22.1,30.16,ENE,59,2.0,4.0,90,0.00,,,0.00,49.0,meteohub,2013-02-25 22:55:00,
2013-02-25 17:00:00,24.6,22.1,30.16,ENE,59,0.0,3.0,90,0.00,,,0.00,42.0,meteohub,2013-02-25 23:00:00,
2013-02-25 17:05:00,24.4,21.9,30.16,ENE,59,0.0,3.0,90,0.00,,,0.00,39.0,meteohub,2013-02-25 23:05:00,
2013-02-25 17:10:00,24.4,21.9,30.16,ENE,59,1.0,3.0,90,0.00,,,0.00,33.0,meteohub,2013-02-25 23:10:00,
2013-02-25 17:15:00,24.4,21.9,30.16,ENE,59,0.0,2.0,90,0.00,,,0.00,30.0,meteohub,2013-02-25 23:15:00,
2013-02-25 17:20:00,24.4,21.9,30.16,ENE,59,0.0,2.0,90,0.00,,,0.00,26.0,meteohub,2013-02-25 23:20:00,
2013-02-25 17:25:00,24.4,21.9,30.16,ENE,59,1.0,2.0,90,0.00,,,0.00,21.0,meteohub,2013-02-25 23:25:00,
2013-02-25 17:30:00,24.3,21.7,30.16,ENE,59,0.0,2.0,90,0.00,,,0.00,18.0,meteohub,2013-02-25 23:30:00,
2013-02-25 17:35:00,24.3,21.7,30.16,ENE,59,0.0,2.0,90,0.00,,,0.00,16.0,meteohub,2013-02-25 23:35:00,
2013-02-25 17:40:00,24.3,22.1,30.16,ENE,59,0.0,2.0,91,0.00,,,0.00,12.0,meteohub,2013-02-25 23:40:00,
2013-02-25 17:45:00,24.3,22.1,30.16,ESE,123,0.0,2.0,91,0.00,,,0.00,11.0,meteohub,2013-02-25 23:45:00,
2013-02-25 17:50:00,24.1,21.9,30.16,ESE,123,0.0,1.0,91,0.00,,,0.00,7.0,meteohub,2013-02-25 23:50:00,
2013-02-25 17:55:00,24.3,22.1,30.16,ESE,123,0.0,1.0,91,0.00,,,0.00,5.0,meteohub,2013-02-25 23:55:00,
2013-02-25 18:00:00,24.1,21.9,30.16,ESE,123,0.0,1.0,91,0.00,,,0.00,0.0,meteohub,2013-02-26 00:00:00,
2013-02-25 18:05:00,24.1,21.9,30.16,ESE,123,0.0,1.0,91,0.00,,,0.00,0.0,meteohub,2013-02-26 00:05:00,
2013-02-25 18:10:00,24.1,21.9,30.16,ESE,123,0.0,1.0,91,0.00,,,0.00,0.0,meteohub,2013-02-26 00:10:00,
2013-02-25 18:15:00,24.1,21.9,30.16,ESE,123,0.0,1.0,91,0.00,,,0.00,0.0,meteohub,2013-02-26 00:15:00,
2013-02-25 18:20:00,24.1,21.9,30.16,ESE,123,0.0,1.0,91,0.00,,,0.00,0.0,meteohub,2013-02-26 00:20:00,
2013-02-25 18:25:00,24.1,21.9,30.16,ESE,123,0.0,1.0,91,0.00,,,0.00,0.0,meteohub,2013-02-26 00:25:00,
2013-02-25 18:30:00,23.9,21.7,30.16,ESE,123,0.0,0.0,91,0.00,,,0.00,0.0,meteohub,2013-02-26 00:30:00,
2013-02-25 18:35:00,23.9,21.7,30.16,ESE,123,0.0,1.0,91,0.00,,,0.00,0.0,meteohub,2013-02-26 00:35:00,
2013-02-25 18:40:00,23.9,21.7,30.17,ESE,123,0.0,1.0,91,0.00,,,0.00,0.0,meteohub,2013-02-26 00:40:00,
2013-02-25 18:45:00,23.9,21.7,30.17,ESE,123,0.0,2.0,91,0.00,,,0.00,0.0,meteohub,2013-02-26 00:45:00,
2013-02-25 18:50:00,23.9,21.7,30.17,ESE,123,0.0,2.0,91,0.00,,,0.00,0.0,meteohub,2013-02-26 00:50:00,
2013-02-25 18:55:00,23.7,21.6,30.17,ESE,123,0.0,2.0,91,0.00,,,0.00,0.0,meteohub,2013-02-26 00:55:00,
2013-02-25 19:00:00,23.7,21.6,30.17,ESE,123,0.0,1.0,91,0.00,,,0.00,0.0,meteohub,2013-02-26 01:00:00,
2013-02-25 19:05:00,23.7,21.6,30.17,ENE,76,1.0,4.0,91,0.00,,,0.00,0.0,meteohub,2013-02-26 01:05:00,
2013-02-25 19:10:00,23.5,21.6,30.17,ENE,76,0.0,4.0,92,0.00,,,0.00,0.0,meteohub,2013-02-26 01:10:00,
2013-02-25 19:15:00,23.5,21.6,30.17,ENE,76,0.0,4.0,92,0.00,,,0.00,0.0,meteohub,2013-02-26 01:15:00,
2013-02-25 19:20:00,23.5,21.6,30.17,ENE,76,0.0,1.0,92,0.00,,,0.00,0.0,meteohub,2013-02-26 01:20:00,
2013-02-25 19:25:00,23.5,21.6,30.17,ENE,76,0.0,1.0,92,0.00,,,0.00,0.0,meteohub,2013-02-26 01:25:00,
2013-02-25 19:30:00,23.7,21.7,30.16,ENE,76,0.0,0.0,92,0.00,,,0.00,0.0,meteohub,2013-02-26 01:30:00,
2013-02-25 19:35:00,23.5,21.6,30.16,NE,55,0.0,4.0,92,0.00,,,0.00,0.0,meteohub,2013-02-26 01:35:00,
2013-02-25 19:40:00,23.4,21.4,30.16,NE,55,0.0,4.0,92,0.00,,,0.00,0.0,meteohub,2013-02-26 01:40:00,
2013-02-25 19:45:00,23.4,21.4,30.16,North,5,0.0,4.0,92,0.00,,,0.00,0.0,meteohub,2013-02-26 01:45:00,
2013-02-25 19:50:00,23.4,21.4,30.15,North,5,0.0,3.0,92,0.00,,,0.00,0.0,meteohub,2013-02-26 01:50:00,
2013-02-25 19:55:00,23.4,21.4,30.15,North,5,0.0,3.0,92,0.00,,,0.00,0.0,meteohub,2013-02-26 01:55:00,
2013-02-25 20:00:00,23.4,21.4,30.16,NE,36,0.0,3.0,92,0.00,,,0.00,0.0,meteohub,2013-02-26 02:00:00,
2013-02-25 20:06:00,23.4,21.4,30.16,NE,36,0.0,3.0,92,0.00,,,0.00,0.0,meteohub,2013-02-26 02:06:00,
2013-02-25 20:11:00,23.4,21.4,30.16,NE,36,2.0,3.0,92,0.00,,,0.00,0.0,meteohub,2013-02-26 02:11:00,
2013-02-25 20:16:00,23.4,21.4,30.16,NE,36,0.0,2.0,92,0.00,,,0.00,0.0,meteohub,2013-02-26 02:16:00,
2013-02-25 20:21:00,23.4,21.4,30.16,NE,36,0.0,2.0,92,0.00,,,0.00,0.0,meteohub,2013-02-26 02:21:00,
2013-02-25 20:26:00,23.4,21.4,30.16,NE,36,0.0,2.0,92,0.00,,,0.00,0.0,meteohub,2013-02-26 02:26:00,
2013-02-25 20:31:00,23.2,21.2,30.16,NE,36,0.0,1.0,92,0.00,,,0.00,0.0,meteohub,2013-02-26 02:31:00,
2013-02-25 20:36:00,23.2,21.2,30.15,NE,36,0.0,1.0,92,0.00,,,0.00,0.0,meteohub,2013-02-26 02:36:00,
2013-02-25 20:41:00,23.2,21.2,30.15,NE,36,0.0,1.0,92,0.00,,,0.00,0.0,meteohub,2013-02-26 02:41:00,
2013-02-25 20:46:00,23.2,21.2,30.15,NE,54,0.0,2.0,92,0.00,,,0.00,0.0,meteohub,2013-02-26 02:46:00,
2013-02-25 20:51:00,23.2,21.2,30.15,NE,54,0.0,2.0,92,0.00,,,0.00,0.0,meteohub,2013-02-26 02:51:00,
2013-02-25 20:56:00,23.2,21.2,30.15,WNW,302,1.0,2.0,92,0.00,,,0.00,0.0,meteohub,2013-02-26 02:56:00,
2013-02-25 21:01:00,23.2,21.2,30.15,NNE,31,0.0,3.0,92,0.00,,,0.00,0.0,meteohub,2013-02-26 03:01:00,
2013-02-25 21:06:00,23.0,21.0,30.14,NNE,31,0.0,3.0,92,0.00,,,0.00,0.0,meteohub,2013-02-26 03:06:00,
2013-02-25 21:11:00,23.0,21.0,30.14,NNE,31,0.0,3.0,92,0.00,,,0.00,0.0,meteohub,2013-02-26 03:11:00,
2013-02-25 21:16:00,23.0,21.0,30.14,NNE,30,0.0,1.0,92,0.00,,,0.00,0.0,meteohub,2013-02-26 03:16:00,
2013-02-25 21:21:00,23.0,21.0,30.14,NNE,30,0.0,1.0,92,0.00,,,0.00,0.0,meteohub,2013-02-26 03:21:00,
2013-02-25 21:26:00,22.8,20.8,30.14,NNE,30,0.0,1.0,92,0.00,,,0.00,0.0,meteohub,2013-02-26 03:26:00,
2013-02-25 21:31:00,22.8,20.8,30.13,NNE,30,0.0,1.0,92,0.00,,,0.00,0.0,meteohub,2013-02-26 03:31:00,
2013-02-25 21:36:00,22.6,20.7,30.13,South,188,0.0,2.0,92,0.00,,,0.00,0.0,meteohub,2013-02-26 03:36:00,
2013-02-25 21:41:00,22.6,20.7,30.13,South,188,0.0,2.0,92,0.00,,,0.00,0.0,meteohub,2013-02-26 03:41:00,
2013-02-25 21:46:00,22.6,20.7,30.13,South,188,0.0,2.0,92,0.00,,,0.00,0.0,meteohub,2013-02-26 03:46:00,
2013-02-25 21:51:00,22.6,20.7,30.13,South,188,0.0,1.0,92,0.00,,,0.00,0.0,meteohub,2013-02-26 03:51:00,
2013-02-25 21:56:00,22.6,20.7,30.12,SSE,150,0.0,1.0,92,0.00,,,0.00,0.0,meteohub,2013-02-26 03:56:00,
2013-02-25 22:01:00,22.6,20.8,30.13,SSE,150,0.0,1.0,93,0.00,,,0.00,0.0,meteohub,2013-02-26 04:01:00,
2013-02-25 22:06:00,22.5,20.5,30.12,SSE,150,0.0,1.0,92,0.00,,,0.00,0.0,meteohub,2013-02-26 04:06:00,
2013-02-25 22:11:00,22.5,20.5,30.13,SSE,150,0.0,1.0,92,0.00,,,0.00,0.0,meteohub,2013-02-26 04:11:00,
2013-02-25 22:16:00,22.5,20.7,30.12,SW,229,0.0,1.0,93,0.00,,,0.00,0.0,meteohub,2013-02-26 04:16:00,
2013-02-25 22:21:00,22.3,20.3,30.12,SW,229,0.0,2.0,92,0.00,,,0.00,0.0,meteohub,2013-02-26 04:21:00,
2013-02-25 22:26:00,22.3,20.5,30.13,SW,229,0.0,2.0,93,0.00,,,0.00,0.0,meteohub,2013-02-26 04:26:00,
2013-02-25 22:31:00,22.3,20.5,30.13,SW,229,0.0,1.0,93,0.00,,,0.00,0.0,meteohub,2013-02-26 04:31:00,
2013-02-25 22:36:00,22.3,20.5,30.12,NW,321,0.0,0.0,93,0.00,,,0.00,0.0,meteohub,2013-02-26 04:36:00,
2013-02-25 22:41:00,22.1,20.1,30.13,NW,321,0.0,1.0,92,0.00,,,0.00,0.0,meteohub,2013-02-26 04:41:00,
2013-02-25 22:46:00,22.1,20.1,30.13,NW,321,0.0,1.0,92,0.00,,,0.00,0.0,meteohub,2013-02-26 04:46:00,
2013-02-25 22:51:00,21.9,19.9,30.13,NW,321,0.0,1.0,92,0.00,,,0.00,0.0,meteohub,2013-02-26 04:51:00,
2013-02-25 22:56:00,21.9,19.9,30.13,NW,321,0.0,1.0,92,0.00,,,0.00,0.0,meteohub,2013-02-26 04:56:00,
2013-02-25 23:00:00,21.9,19.9,30.12,NW,321,0.0,1.0,92,0.00,,,0.00,0.0,meteohub,2013-02-26 05:00:00,
2013-02-25 23:05:00,21.9,19.9,30.13,ENE,78,1.0,3.0,92,0.00,,,0.00,0.0,meteohub,2013-02-26 05:05:00,
2013-02-25 23:10:00,21.7,19.8,30.13,SE,146,0.0,3.0,92,0.00,,,0.00,0.0,meteohub,2013-02-26 05:10:00,
2013-02-25 23:15:00,21.7,19.8,30.14,SE,146,0.0,3.0,92,0.00,,,0.00,0.0,meteohub,2013-02-26 05:15:00,
2013-02-25 23:20:00,21.7,19.8,30.14,SE,146,1.0,3.0,92,0.00,,,0.00,0.0,meteohub,2013-02-26 05:20:00,
2013-02-25 23:25:00,21.7,19.8,30.14,SE,146,0.0,1.0,92,0.00,,,0.00,0.0,meteohub,2013-02-26 05:25:00,
2013-02-25 23:30:00,21.6,19.6,30.13,SE,146,0.0,1.0,92,0.00,,,0.00,0.0,meteohub,2013-02-26 05:30:00,
2013-02-25 23:35:00,21.6,19.6,30.13,SE,145,0.0,1.0,92,0.00,,,0.00,0.0,meteohub,2013-02-26 05:35:00,
2013-02-25 23:40:00,21.6,19.6,30.12,WNW,296,0.0,2.0,92,0.00,,,0.00,0.0,meteohub,2013-02-26 05:40:00,
2013-02-25 23:45:00,21.6,19.6,30.12,WNW,296,0.0,2.0,92,0.00,,,0.00,0.0,meteohub,2013-02-26 05:45:00,
2013-02-25 23:50:00,21.6,19.6,30.12,WNW,296,0.0,2.0,92,0.00,,,0.00,0.0,meteohub,2013-02-26 05:50:00,
2013-02-25 23:55:00,21.4,19.4,30.12,WNW,296,0.0,1.0,92,0.00,,,0.00,0.0,meteohub,2013-02-26 05:55:00,